KBNA/BNA METAR and TAF weather

Enter ICAO airport designator
Station Type Date Time Source
KBNA METAR 2019/04/18 09:53 UTC NOAA

KBNA 180953Z 18004KT 10SM SCT180 BKN250 16/11 A2983 RMK AO2 SLP097 T01610111


Station Type Date Time Source
KBNA Decoded METAR 2019/04/18 09:53 UTC NOAA

NASHVILLE INTERNATIONAL AIRPORT, TN, United States (KBNA) 36-07N 086-41W 210M
Apr 18, 2019 - 05:53 AM EDT / 2019.04.18 0953 UTC
Wind: from the S (180 degrees) at 5 MPH (4 KT):0
Visibility: 10 mile(s):0
Sky conditions: mostly cloudy
Temperature: 61.0 F (16.1 C)
Dew Point: 52.0 F (11.1 C)
Relative Humidity: 72%
Pressure (altimeter): 29.83 in. Hg (1010 hPa)
ob: KBNA 180953Z 18004KT 10SM SCT180 BKN250 16/11 A2983 RMK AO2 SLP097 T01610111
cycle: 10

Station Type Date Time Source
KBNA TAF 2019/04/18 06:22 UTC NOAA

TAF KBNA 180520Z 1806/1906 20008KT P6SM BKN250
FM182000 18017G29KT P6SM VCSH OVC090
FM190100 18016G25KT P6SM OVC060 PROB30 1901/1905 2SM TSRA OVC025CB
FM190500 26011G18KT 5SM -RA OVC025

Example: see airport list